sensor_id;sensor_type;location;lat;lon;timestamp;pressure;altitude;pressure_sealevel;temperature;humidity
9439;BME280;5176;42.622;25.386;2024-03-29T00:00:36;96889.38;;;12.60;77.58
9439;BME280;5176;42.622;25.386;2024-03-29T00:03:02;96918.88;;;12.52;78.71
9439;BME280;5176;42.622;25.386;2024-03-29T00:05:29;96887.56;;;12.38;79.02
9439;BME280;5176;42.622;25.386;2024-03-29T00:07:55;96907.72;;;12.26;79.20
9439;BME280;5176;42.622;25.386;2024-03-29T00:10:23;96923.16;;;12.31;79.24
9439;BME280;5176;42.622;25.386;2024-03-29T00:12:50;96918.09;;;12.28;79.26
9439;BME280;5176;42.622;25.386;2024-03-29T00:15:16;96929.00;;;12.35;78.59
9439;BME280;5176;42.622;25.386;2024-03-29T00:17:43;96917.28;;;12.27;78.17
9439;BME280;5176;42.622;25.386;2024-03-29T00:20:10;96932.16;;;12.16;77.40
9439;BME280;5176;42.622;25.386;2024-03-29T00:22:37;96928.56;;;12.06;77.82
9439;BME280;5176;42.622;25.386;2024-03-29T00:25:03;96914.34;;;11.97;77.00
9439;BME280;5176;42.622;25.386;2024-03-29T00:27:32;96911.31;;;11.90;77.59
9439;BME280;5176;42.622;25.386;2024-03-29T00:29:58;96913.84;;;11.92;78.55
9439;BME280;5176;42.622;25.386;2024-03-29T00:32:25;96901.75;;;11.89;77.55
9439;BME280;5176;42.622;25.386;2024-03-29T00:34:52;96899.25;;;11.88;77.55
9439;BME280;5176;42.622;25.386;2024-03-29T00:37:19;96902.94;;;11.85;78.65
9439;BME280;5176;42.622;25.386;2024-03-29T00:39:45;96906.13;;;11.78;78.71
9439;BME280;5176;42.622;25.386;2024-03-29T00:42:12;96899.69;;;11.58;79.65
9439;BME280;5176;42.622;25.386;2024-03-29T00:44:40;96904.75;;;11.48;78.89
9439;BME280;5176;42.622;25.386;2024-03-29T00:47:06;96914.16;;;11.39;78.04
9439;BME280;5176;42.622;25.386;2024-03-29T00:49:33;96925.47;;;11.40;78.24
9439;BME280;5176;42.622;25.386;2024-03-29T00:52:00;96914.88;;;11.41;78.83
9439;BME280;5176;42.622;25.386;2024-03-29T00:54:26;96926.19;;;11.42;78.17
9439;BME280;5176;42.622;25.386;2024-03-29T00:56:52;96922.34;;;11.35;78.05
9439;BME280;5176;42.622;25.386;2024-03-29T00:59:19;96923.56;;;11.42;78.71
9439;BME280;5176;42.622;25.386;2024-03-29T01:01:47;96919.78;;;11.46;78.10
9439;BME280;5176;42.622;25.386;2024-03-29T01:04:14;96915.25;;;11.48;77.74
9439;BME280;5176;42.622;25.386;2024-03-29T01:06:40;96912.88;;;11.45;78.00
9439;BME280;5176;42.622;25.386;2024-03-29T01:09:07;96920.56;;;11.35;78.78
9439;BME280;5176;42.622;25.386;2024-03-29T01:11:33;96917.22;;;11.33;79.29
9439;BME280;5176;42.622;25.386;2024-03-29T01:14:00;96920.78;;;11.32;79.57
9439;BME280;5176;42.622;25.386;2024-03-29T01:16:26;96910.19;;;11.34;80.06
9439;BME280;5176;42.622;25.386;2024-03-29T01:18:54;96925.19;;;11.32;81.08
9439;BME280;5176;42.622;25.386;2024-03-29T01:21:20;96927.59;;;11.35;81.44
9439;BME280;5176;42.622;25.386;2024-03-29T01:23:46;96926.31;;;11.40;81.54
9439;BME280;5176;42.622;25.386;2024-03-29T01:26:13;96919.28;;;11.41;82.12
9439;BME280;5176;42.622;25.386;2024-03-29T01:28:39;96916.38;;;11.33;82.58
9439;BME280;5176;42.622;25.386;2024-03-29T01:31:06;96919.13;;;11.31;82.88
9439;BME280;5176;42.622;25.386;2024-03-29T01:33:32;96919.72;;;11.35;82.91
9439;BME280;5176;42.622;25.386;2024-03-29T01:36:00;96925.91;;;11.34;82.84
9439;BME280;5176;42.622;25.386;2024-03-29T01:38:26;96925.81;;;11.35;83.73
9439;BME280;5176;42.622;25.386;2024-03-29T01:40:53;96941.47;;;11.37;83.04
9439;BME280;5176;42.622;25.386;2024-03-29T01:43:19;96943.34;;;11.35;82.47
9439;BME280;5176;42.622;25.386;2024-03-29T01:45:48;96946.19;;;11.32;82.44
9439;BME280;5176;42.622;25.386;2024-03-29T01:48:17;96936.66;;;11.31;82.00
9439;BME280;5176;42.622;25.386;2024-03-29T01:50:45;96925.53;;;11.27;82.23
9439;BME280;5176;42.622;25.386;2024-03-29T01:53:17;96914.50;;;11.22;82.09
9439;BME280;5176;42.622;25.386;2024-03-29T01:55:45;96933.72;;;11.23;82.10
9439;BME280;5176;42.622;25.386;2024-03-29T01:58:14;96942.41;;;11.23;82.04
9439;BME280;5176;42.622;25.386;2024-03-29T02:00:51;96931.63;;;11.15;82.98
9439;BME280;5176;42.622;25.386;2024-03-29T02:03:18;96945.81;;;11.12;83.82
9439;BME280;5176;42.622;25.386;2024-03-29T02:05:47;96943.22;;;11.00;84.40
9439;BME280;5176;42.622;25.386;2024-03-29T02:08:16;96954.38;;;10.90;85.63
9439;BME280;5176;42.622;25.386;2024-03-29T02:10:46;96957.72;;;10.93;86.68
9439;BME280;5176;42.622;25.386;2024-03-29T02:13:14;96963.47;;;10.98;85.87
9439;BME280;5176;42.622;25.386;2024-03-29T02:15:42;96956.16;;;10.90;85.23
9439;BME280;5176;42.622;25.386;2024-03-29T02:18:09;96963.50;;;10.85;83.94
9439;BME280;5176;42.622;25.386;2024-03-29T02:20:37;96967.06;;;10.84;83.68
9439;BME280;5176;42.622;25.386;2024-03-29T02:23:07;96966.94;;;10.73;83.26
9439;BME280;5176;42.622;25.386;2024-03-29T02:25:38;96967.13;;;10.70;82.14
9439;BME280;5176;42.622;25.386;2024-03-29T02:28:06;96973.13;;;10.72;81.69
9439;BME280;5176;42.622;25.386;2024-03-29T02:30:33;96979.53;;;10.68;81.63
9439;BME280;5176;42.622;25.386;2024-03-29T02:33:01;96978.69;;;10.67;81.91
9439;BME280;5176;42.622;25.386;2024-03-29T02:35:29;96977.00;;;10.66;81.66
9439;BME280;5176;42.622;25.386;2024-03-29T02:37:57;96986.03;;;10.62;82.52
9439;BME280;5176;42.622;25.386;2024-03-29T02:40:24;96986.03;;;10.62;82.54
9439;BME280;5176;42.622;25.386;2024-03-29T02:42:53;96998.63;;;10.57;81.88
9439;BME280;5176;42.622;25.386;2024-03-29T02:45:21;96998.28;;;10.49;82.01
9439;BME280;5176;42.622;25.386;2024-03-29T02:47:48;97011.06;;;10.53;81.39
9439;BME280;5176;42.622;25.386;2024-03-29T02:50:16;97012.88;;;10.53;81.36
9439;BME280;5176;42.622;25.386;2024-03-29T02:52:43;97009.50;;;10.38;82.12
9439;BME280;5176;42.622;25.386;2024-03-29T02:55:11;97019.22;;;10.23;83.06
9439;BME280;5176;42.622;25.386;2024-03-29T02:57:37;97016.41;;;10.12;83.94
9439;BME280;5176;42.622;25.386;2024-03-29T03:00:08;97020.56;;;10.02;85.96
9439;BME280;5176;42.622;25.386;2024-03-29T03:02:37;97029.03;;;9.93;86.57
9439;BME280;5176;42.622;25.386;2024-03-29T03:05:07;97034.66;;;9.87;87.05
9439;BME280;5176;42.622;25.386;2024-03-29T03:07:34;97047.44;;;9.91;87.69
9439;BME280;5176;42.622;25.386;2024-03-29T03:10:19;97031.59;;;9.80;86.66
9439;BME280;5176;42.622;25.386;2024-03-29T03:13:04;97039.25;;;9.83;86.56
9439;BME280;5176;42.622;25.386;2024-03-29T03:15:33;97043.09;;;9.77;86.53
9439;BME280;5176;42.622;25.386;2024-03-29T03:17:59;97047.28;;;9.80;87.01
9439;BME280;5176;42.622;25.386;2024-03-29T03:20:27;97051.47;;;9.82;86.94
9439;BME280;5176;42.622;25.386;2024-03-29T03:22:56;97049.53;;;9.86;87.12
9439;BME280;5176;42.622;25.386;2024-03-29T03:25:24;97055.41;;;9.90;86.90
9439;BME280;5176;42.622;25.386;2024-03-29T03:27:51;97055.16;;;9.80;87.17
9439;BME280;5176;42.622;25.386;2024-03-29T03:30:18;97006.59;;;9.47;87.91
9439;BME280;5176;42.622;25.386;2024-03-29T03:32:46;97053.19;;;9.83;89.10
9439;BME280;5176;42.622;25.386;2024-03-29T03:35:14;97066.28;;;9.83;89.58
9439;BME280;5176;42.622;25.386;2024-03-29T03:37:41;97073.69;;;9.77;91.18
9439;BME280;5176;42.622;25.386;2024-03-29T03:40:09;97073.91;;;9.87;91.93
9439;BME280;5176;42.622;25.386;2024-03-29T03:42:36;97075.50;;;9.89;92.43
9439;BME280;5176;42.622;25.386;2024-03-29T03:45:04;97073.97;;;9.99;92.68
9439;BME280;5176;42.622;25.386;2024-03-29T03:47:30;97077.34;;;10.01;91.65
9439;BME280;5176;42.622;25.386;2024-03-29T03:50:00;97089.09;;;10.08;90.87
9439;BME280;5176;42.622;25.386;2024-03-29T03:52:26;97088.34;;;10.06;91.11
9439;BME280;5176;42.622;25.386;2024-03-29T03:54:54;97091.63;;;10.10;91.56
9439;BME280;5176;42.622;25.386;2024-03-29T03:57:20;97091.81;;;10.07;91.82
9439;BME280;5176;42.622;25.386;2024-03-29T03:59:49;97097.50;;;10.14;92.66
9439;BME280;5176;42.622;25.386;2024-03-29T04:02:19;97107.69;;;10.18;92.14
9439;BME280;5176;42.622;25.386;2024-03-29T04:04:47;97104.41;;;10.15;92.69
9439;BME280;5176;42.622;25.386;2024-03-29T04:07:15;97099.50;;;10.10;92.09
9439;BME280;5176;42.622;25.386;2024-03-29T04:09:43;97107.44;;;10.08;91.45
9439;BME280;5176;42.622;25.386;2024-03-29T04:12:10;97106.47;;;10.09;89.71
9439;BME280;5176;42.622;25.386;2024-03-29T04:14:37;97112.97;;;10.04;88.33
9439;BME280;5176;42.622;25.386;2024-03-29T04:17:04;97121.84;;;10.01;88.07
9439;BME280;5176;42.622;25.386;2024-03-29T04:19:31;97117.66;;;9.99;87.73
9439;BME280;5176;42.622;25.386;2024-03-29T04:21:58;97128.31;;;9.96;85.72
9439;BME280;5176;42.622;25.386;2024-03-29T04:24:28;97127.72;;;9.78;85.80
9439;BME280;5176;42.622;25.386;2024-03-29T04:26:55;97126.97;;;9.33;90.47
9439;BME280;5176;42.622;25.386;2024-03-29T04:29:22;97134.81;;;9.33;91.65
9439;BME280;5176;42.622;25.386;2024-03-29T04:31:50;97144.16;;;9.23;92.03
9439;BME280;5176;42.622;25.386;2024-03-29T04:34:16;97150.41;;;9.20;92.44
9439;BME280;5176;42.622;25.386;2024-03-29T04:36:44;97159.66;;;9.26;92.39
9439;BME280;5176;42.622;25.386;2024-03-29T04:39:12;97161.06;;;9.32;92.16
9439;BME280;5176;42.622;25.386;2024-03-29T04:41:41;97157.28;;;9.07;93.85
9439;BME280;5176;42.622;25.386;2024-03-29T04:44:09;97170.38;;;9.07;94.70
9439;BME280;5176;42.622;25.386;2024-03-29T04:46:37;97171.28;;;8.92;95.48
9439;BME280;5176;42.622;25.386;2024-03-29T04:49:04;97175.31;;;8.97;96.45
9439;BME280;5176;42.622;25.386;2024-03-29T04:51:33;97171.19;;;8.93;97.02
9439;BME280;5176;42.622;25.386;2024-03-29T04:54:00;97163.34;;;8.63;98.50
9439;BME280;5176;42.622;25.386;2024-03-29T04:56:28;97162.31;;;8.66;98.53
9439;BME280;5176;42.622;25.386;2024-03-29T04:58:57;97159.84;;;8.79;98.71
9439;BME280;5176;42.622;25.386;2024-03-29T05:01:25;97178.41;;;9.04;98.25
9439;BME280;5176;42.622;25.386;2024-03-29T05:03:52;97177.59;;;9.18;94.62
9439;BME280;5176;42.622;25.386;2024-03-29T05:06:20;97177.16;;;9.40;93.14
9439;BME280;5176;42.622;25.386;2024-03-29T05:08:48;97182.69;;;9.64;93.14
9439;BME280;5176;42.622;25.386;2024-03-29T05:11:15;97182.38;;;9.82;92.39
9439;BME280;5176;42.622;25.386;2024-03-29T05:13:43;97183.13;;;9.99;91.08
9439;BME280;5176;42.622;25.386;2024-03-29T05:16:12;97190.38;;;10.22;88.31
9439;BME280;5176;42.622;25.386;2024-03-29T05:18:41;97186.72;;;10.39;87.88
9439;BME280;5176;42.622;25.386;2024-03-29T05:21:08;97186.56;;;10.55;86.50
9439;BME280;5176;42.622;25.386;2024-03-29T05:23:36;97181.59;;;10.64;85.32
9439;BME280;5176;42.622;25.386;2024-03-29T05:26:04;97196.59;;;10.75;84.68
9439;BME280;5176;42.622;25.386;2024-03-29T05:28:30;97197.47;;;10.88;84.12
9439;BME280;5176;42.622;25.386;2024-03-29T05:31:12;97197.19;;;10.93;84.65
9439;BME280;5176;42.622;25.386;2024-03-29T05:33:41;97184.22;;;11.04;84.69
9439;BME280;5176;42.622;25.386;2024-03-29T05:36:08;97198.28;;;11.16;84.17
9439;BME280;5176;42.622;25.386;2024-03-29T05:38:38;97188.13;;;11.24;84.25
9439;BME280;5176;42.622;25.386;2024-03-29T05:41:06;97195.06;;;11.38;83.06
9439;BME280;5176;42.622;25.386;2024-03-29T05:43:34;97199.69;;;11.47;82.34
9439;BME280;5176;42.622;25.386;2024-03-29T05:46:02;97200.00;;;11.55;82.27
9439;BME280;5176;42.622;25.386;2024-03-29T05:48:32;97196.84;;;11.63;81.89
9439;BME280;5176;42.622;25.386;2024-03-29T05:51:00;97205.47;;;11.78;81.27
9439;BME280;5176;42.622;25.386;2024-03-29T05:53:27;97204.44;;;11.93;80.77
9439;BME280;5176;42.622;25.386;2024-03-29T05:55:55;97213.44;;;12.14;80.33
9439;BME280;5176;42.622;25.386;2024-03-29T05:58:23;97211.50;;;12.29;78.99
9439;BME280;5176;42.622;25.386;2024-03-29T06:00:50;97216.25;;;12.61;77.14
9439;BME280;5176;42.622;25.386;2024-03-29T06:03:18;97217.84;;;12.87;75.69
9439;BME280;5176;42.622;25.386;2024-03-29T06:05:47;97222.13;;;13.12;74.63
9439;BME280;5176;42.622;25.386;2024-03-29T06:08:15;97222.22;;;13.34;72.29
9439;BME280;5176;42.622;25.386;2024-03-29T06:10:42;97215.00;;;13.60;69.77
9439;BME280;5176;42.622;25.386;2024-03-29T06:13:10;97216.22;;;13.79;69.79
9439;BME280;5176;42.622;25.386;2024-03-29T06:15:53;97212.75;;;13.89;70.22
9439;BME280;5176;42.622;25.386;2024-03-29T06:18:38;97209.28;;;14.00;70.45
9439;BME280;5176;42.622;25.386;2024-03-29T06:21:07;97212.16;;;14.08;68.92
9439;BME280;5176;42.622;25.386;2024-03-29T06:23:35;97213.13;;;14.18;68.16
9439;BME280;5176;42.622;25.386;2024-03-29T06:26:04;97225.31;;;14.42;68.32
9439;BME280;5176;42.622;25.386;2024-03-29T06:28:31;97222.41;;;14.79;66.82
9439;BME280;5176;42.622;25.386;2024-03-29T06:30:59;97229.25;;;15.13;65.17
9439;BME280;5176;42.622;25.386;2024-03-29T06:33:28;97231.97;;;15.44;62.81
9439;BME280;5176;42.622;25.386;2024-03-29T06:35:55;97236.66;;;15.72;61.52
9439;BME280;5176;42.622;25.386;2024-03-29T06:38:24;97243.22;;;15.99;59.50
9439;BME280;5176;42.622;25.386;2024-03-29T06:40:52;97244.56;;;16.24;58.93
9439;BME280;5176;42.622;25.386;2024-03-29T06:43:19;97242.56;;;16.47;58.59
9439;BME280;5176;42.622;25.386;2024-03-29T06:45:47;97243.06;;;16.71;58.51
9439;BME280;5176;42.622;25.386;2024-03-29T06:48:15;97252.06;;;16.99;56.15
9439;BME280;5176;42.622;25.386;2024-03-29T06:50:42;97256.53;;;16.99;56.04
9439;BME280;5176;42.622;25.386;2024-03-29T06:53:10;97249.44;;;17.19;56.30
9439;BME280;5176;42.622;25.386;2024-03-29T06:55:39;97256.81;;;17.54;55.35
9439;BME280;5176;42.622;25.386;2024-03-29T06:58:06;97253.00;;;17.85;53.02
9439;BME280;5176;42.622;25.386;2024-03-29T07:00:36;97250.31;;;18.14;52.24
9439;BME280;5176;42.622;25.386;2024-03-29T07:03:03;97256.22;;;18.36;51.21
9439;BME280;5176;42.622;25.386;2024-03-29T07:05:31;97265.63;;;18.58;50.31
9439;BME280;5176;42.622;25.386;2024-03-29T07:07:59;97272.34;;;18.89;49.45
9439;BME280;5176;42.622;25.386;2024-03-29T07:10:27;97269.41;;;19.10;49.21
9439;BME280;5176;42.622;25.386;2024-03-29T07:12:57;97274.22;;;19.42;48.75
9439;BME280;5176;42.622;25.386;2024-03-29T07:15:24;97255.25;;;19.73;48.02
9439;BME280;5176;42.622;25.386;2024-03-29T07:17:52;97264.75;;;20.01;47.18
9439;BME280;5176;42.622;25.386;2024-03-29T07:20:19;97270.75;;;20.29;45.18
9439;BME280;5176;42.622;25.386;2024-03-29T07:22:47;97268.06;;;20.47;43.53
9439;BME280;5176;42.622;25.386;2024-03-29T07:25:14;97263.66;;;20.72;42.21
9439;BME280;5176;42.622;25.386;2024-03-29T07:27:42;97266.22;;;20.98;40.66
9439;BME280;5176;42.622;25.386;2024-03-29T07:30:13;97271.94;;;21.19;41.09
9439;BME280;5176;42.622;25.386;2024-03-29T07:32:40;97261.84;;;21.39;40.58
9439;BME280;5176;42.622;25.386;2024-03-29T07:35:08;97263.03;;;21.69;40.39
9439;BME280;5176;42.622;25.386;2024-03-29T07:37:36;97268.03;;;21.97;39.96
9439;BME280;5176;42.622;25.386;2024-03-29T07:40:04;97257.50;;;22.20;40.73
9439;BME280;5176;42.622;25.386;2024-03-29T07:42:32;97261.34;;;22.34;40.30
9439;BME280;5176;42.622;25.386;2024-03-29T07:45:00;97277.91;;;22.60;38.92
9439;BME280;5176;42.622;25.386;2024-03-29T07:47:29;97282.06;;;22.87;39.25
9439;BME280;5176;42.622;25.386;2024-03-29T07:49:56;97278.59;;;23.09;39.31
9439;BME280;5176;42.622;25.386;2024-03-29T07:52:24;97280.50;;;23.24;37.67
9439;BME280;5176;42.622;25.386;2024-03-29T07:54:51;97299.13;;;23.40;37.90
9439;BME280;5176;42.622;25.386;2024-03-29T07:57:19;97294.69;;;23.55;37.55
9439;BME280;5176;42.622;25.386;2024-03-29T07:59:47;97297.63;;;23.69;36.51
9439;BME280;5176;42.622;25.386;2024-03-29T08:02:14;97292.84;;;23.79;35.84
9439;BME280;5176;42.622;25.386;2024-03-29T08:04:43;97304.66;;;24.07;35.86
9439;BME280;5176;42.622;25.386;2024-03-29T08:07:13;97300.94;;;24.31;35.20
9439;BME280;5176;42.622;25.386;2024-03-29T08:09:41;97289.44;;;24.60;34.55
9439;BME280;5176;42.622;25.386;2024-03-29T08:12:09;97300.91;;;24.69;32.22
9439;BME280;5176;42.622;25.386;2024-03-29T08:14:36;97293.69;;;24.84;33.12
9439;BME280;5176;42.622;25.386;2024-03-29T08:17:04;97300.31;;;25.03;30.91
9439;BME280;5176;42.622;25.386;2024-03-29T08:19:35;97292.09;;;24.90;30.33
9439;BME280;5176;42.622;25.386;2024-03-29T08:22:04;97286.09;;;24.88;30.38
9439;BME280;5176;42.622;25.386;2024-03-29T08:24:32;97275.75;;;24.70;30.03
9439;BME280;5176;42.622;25.386;2024-03-29T08:26:59;97280.75;;;24.73;29.64
9439;BME280;5176;42.622;25.386;2024-03-29T08:29:28;97287.50;;;24.84;29.59
9439;BME280;5176;42.622;25.386;2024-03-29T08:31:56;97291.16;;;24.97;29.57
9439;BME280;5176;42.622;25.386;2024-03-29T08:34:23;97290.06;;;25.07;29.36
9439;BME280;5176;42.622;25.386;2024-03-29T08:36:53;97295.34;;;25.15;29.57
9439;BME280;5176;42.622;25.386;2024-03-29T08:39:23;97285.81;;;25.48;29.82
9439;BME280;5176;42.622;25.386;2024-03-29T08:41:54;97286.88;;;25.54;28.56
9439;BME280;5176;42.622;25.386;2024-03-29T08:44:22;97283.81;;;25.36;28.43
9439;BME280;5176;42.622;25.386;2024-03-29T08:46:50;97288.56;;;25.55;29.17
9439;BME280;5176;42.622;25.386;2024-03-29T08:49:19;97291.19;;;25.70;28.54
9439;BME280;5176;42.622;25.386;2024-03-29T08:51:47;97275.28;;;25.90;28.98
9439;BME280;5176;42.622;25.386;2024-03-29T08:54:14;97286.66;;;25.92;28.28
9439;BME280;5176;42.622;25.386;2024-03-29T08:56:43;97296.59;;;26.19;28.50
9439;BME280;5176;42.622;25.386;2024-03-29T08:59:11;97288.16;;;26.50;27.87
9439;BME280;5176;42.622;25.386;2024-03-29T09:01:42;97290.03;;;26.50;27.41
9439;BME280;5176;42.622;25.386;2024-03-29T09:04:10;97286.53;;;26.28;27.12
9439;BME280;5176;42.622;25.386;2024-03-29T09:06:38;97286.34;;;26.29;27.96
9439;BME280;5176;42.622;25.386;2024-03-29T09:09:06;97289.38;;;26.48;28.11
9439;BME280;5176;42.622;25.386;2024-03-29T09:11:34;97287.28;;;26.78;27.88
9439;BME280;5176;42.622;25.386;2024-03-29T09:14:03;97284.66;;;26.91;26.78
9439;BME280;5176;42.622;25.386;2024-03-29T09:16:35;97292.47;;;26.79;26.60
9439;BME280;5176;42.622;25.386;2024-03-29T09:19:03;97277.47;;;26.57;27.16
9439;BME280;5176;42.622;25.386;2024-03-29T09:21:31;97296.22;;;26.22;26.32
9439;BME280;5176;42.622;25.386;2024-03-29T09:23:58;97281.22;;;26.63;26.88
9439;BME280;5176;42.622;25.386;2024-03-29T09:26:26;97274.91;;;26.83;26.95
9439;BME280;5176;42.622;25.386;2024-03-29T09:28:54;97274.47;;;27.21;26.63
9439;BME280;5176;42.622;25.386;2024-03-29T09:31:23;97281.69;;;27.14;26.41
9439;BME280;5176;42.622;25.386;2024-03-29T09:33:50;97279.13;;;26.99;26.09
9439;BME280;5176;42.622;25.386;2024-03-29T09:55:08;97265.72;;;28.27;24.70
9439;BME280;5176;42.622;25.386;2024-03-29T09:57:36;97256.41;;;28.36;24.82
9439;BME280;5176;42.622;25.386;2024-03-29T10:00:05;97256.38;;;28.29;24.46
9439;BME280;5176;42.622;25.386;2024-03-29T10:02:34;97250.19;;;27.95;24.61
9439;BME280;5176;42.622;25.386;2024-03-29T10:05:06;97239.59;;;27.94;24.57
9439;BME280;5176;42.622;25.386;2024-03-29T10:07:35;97234.63;;;28.04;25.05
9439;BME280;5176;42.622;25.386;2024-03-29T10:10:04;97227.38;;;28.11;24.37
9439;BME280;5176;42.622;25.386;2024-03-29T10:31:49;97229.66;;;30.00;22.95
9439;BME280;5176;42.622;25.386;2024-03-29T10:34:18;97225.47;;;30.04;23.38
9439;BME280;5176;42.622;25.386;2024-03-29T10:36:47;97230.25;;;30.02;22.96
9439;BME280;5176;42.622;25.386;2024-03-29T10:39:17;97241.00;;;30.09;22.39
9439;BME280;5176;42.622;25.386;2024-03-29T10:41:47;97233.47;;;29.93;23.57
9439;BME280;5176;42.622;25.386;2024-03-29T10:44:14;97228.66;;;29.95;23.25
9439;BME280;5176;42.622;25.386;2024-03-29T10:46:42;97232.56;;;29.74;22.97
9439;BME280;5176;42.622;25.386;2024-03-29T10:49:15;97220.75;;;29.68;23.37
9439;BME280;5176;42.622;25.386;2024-03-29T10:51:44;97215.59;;;29.67;23.62
9439;BME280;5176;42.622;25.386;2024-03-29T10:54:12;97229.88;;;29.36;23.17
9439;BME280;5176;42.622;25.386;2024-03-29T10:56:43;97200.34;;;29.16;23.37
9439;BME280;5176;42.622;25.386;2024-03-29T10:59:19;97226.22;;;29.30;23.24
9439;BME280;5176;42.622;25.386;2024-03-29T11:01:52;97216.00;;;29.32;23.45
9439;BME280;5176;42.622;25.386;2024-03-29T11:04:28;97218.13;;;28.78;23.85
9439;BME280;5176;42.622;25.386;2024-03-29T11:06:58;97216.44;;;28.84;23.33
9439;BME280;5176;42.622;25.386;2024-03-29T11:09:28;97211.44;;;28.94;23.40
9439;BME280;5176;42.622;25.386;2024-03-29T11:11:58;97218.47;;;28.95;23.46
9439;BME280;5176;42.622;25.386;2024-03-29T11:14:33;97212.44;;;29.00;24.23
9439;BME280;5176;42.622;25.386;2024-03-29T11:17:03;97202.81;;;29.17;24.29
9439;BME280;5176;42.622;25.386;2024-03-29T11:19:32;97200.34;;;29.16;23.88
9439;BME280;5176;42.622;25.386;2024-03-29T11:22:00;97211.75;;;29.18;24.25
9439;BME280;5176;42.622;25.386;2024-03-29T11:24:28;97217.44;;;29.35;24.24
9439;BME280;5176;42.622;25.386;2024-03-29T11:26:55;97228.19;;;29.41;23.85
9439;BME280;5176;42.622;25.386;2024-03-29T11:29:22;97224.03;;;29.45;23.27
9439;BME280;5176;42.622;25.386;2024-03-29T11:31:56;97206.34;;;29.49;23.62
9439;BME280;5176;42.622;25.386;2024-03-29T11:34:24;97198.25;;;29.56;23.40
9439;BME280;5176;42.622;25.386;2024-03-29T11:36:54;97199.00;;;29.63;24.78
9439;BME280;5176;42.622;25.386;2024-03-29T11:39:22;97200.75;;;29.76;24.19
9439;BME280;5176;42.622;25.386;2024-03-29T11:41:50;97203.91;;;29.73;24.02
9439;BME280;5176;42.622;25.386;2024-03-29T11:44:18;97194.47;;;29.82;23.09
9439;BME280;5176;42.622;25.386;2024-03-29T11:46:47;97192.16;;;29.85;23.29
9439;BME280;5176;42.622;25.386;2024-03-29T11:49:16;97190.47;;;29.91;23.43
9439;BME280;5176;42.622;25.386;2024-03-29T11:51:44;97181.25;;;29.74;22.74
9439;BME280;5176;42.622;25.386;2024-03-29T11:54:15;97183.94;;;29.42;24.21
9439;BME280;5176;42.622;25.386;2024-03-29T11:56:43;97182.75;;;29.00;24.09
9439;BME280;5176;42.622;25.386;2024-03-29T11:59:10;97197.38;;;29.24;23.94
9439;BME280;5176;42.622;25.386;2024-03-29T12:01:39;97189.19;;;28.99;23.64
9439;BME280;5176;42.622;25.386;2024-03-29T12:04:07;97172.81;;;28.87;23.33
9439;BME280;5176;42.622;25.386;2024-03-29T12:06:36;97183.22;;;28.90;24.40
9439;BME280;5176;42.622;25.386;2024-03-29T12:09:05;97178.78;;;29.09;24.84
9439;BME280;5176;42.622;25.386;2024-03-29T12:11:34;97182.38;;;29.28;24.01
9439;BME280;5176;42.622;25.386;2024-03-29T12:14:03;97190.97;;;29.18;24.18
9439;BME280;5176;42.622;25.386;2024-03-29T12:16:43;97185.31;;;28.82;23.64
9439;BME280;5176;42.622;25.386;2024-03-29T12:19:22;97182.44;;;28.76;24.88
9439;BME280;5176;42.622;25.386;2024-03-29T12:21:51;97174.94;;;28.85;24.68
9439;BME280;5176;42.622;25.386;2024-03-29T12:24:18;97187.16;;;28.94;24.10
9439;BME280;5176;42.622;25.386;2024-03-29T12:26:49;97170.56;;;28.84;24.23
9439;BME280;5176;42.622;25.386;2024-03-29T12:29:17;97185.22;;;28.57;24.58
9439;BME280;5176;42.622;25.386;2024-03-29T12:31:45;97180.47;;;28.45;24.52
9439;BME280;5176;42.622;25.386;2024-03-29T12:34:23;97169.22;;;28.55;24.67
9439;BME280;5176;42.622;25.386;2024-03-29T12:36:50;97173.16;;;28.59;24.47
9439;BME280;5176;42.622;25.386;2024-03-29T12:39:18;97173.72;;;28.74;24.18
9439;BME280;5176;42.622;25.386;2024-03-29T12:41:46;97176.09;;;28.51;23.96
9439;BME280;5176;42.622;25.386;2024-03-29T12:44:16;97156.19;;;28.52;24.06
9439;BME280;5176;42.622;25.386;2024-03-29T12:46:44;97168.72;;;28.78;25.35
9439;BME280;5176;42.622;25.386;2024-03-29T12:49:12;97163.34;;;28.78;24.76
9439;BME280;5176;42.622;25.386;2024-03-29T12:51:40;97172.38;;;28.45;24.47
9439;BME280;5176;42.622;25.386;2024-03-29T12:54:08;97160.53;;;28.53;24.01
9439;BME280;5176;42.622;25.386;2024-03-29T12:56:36;97163.88;;;28.48;24.59
9439;BME280;5176;42.622;25.386;2024-03-29T12:59:06;97167.13;;;28.70;24.28
9439;BME280;5176;42.622;25.386;2024-03-29T13:01:35;97162.19;;;29.06;24.65
9439;BME280;5176;42.622;25.386;2024-03-29T13:04:04;97157.16;;;29.16;24.11
9439;BME280;5176;42.622;25.386;2024-03-29T13:06:31;97158.50;;;28.93;24.23
9439;BME280;5176;42.622;25.386;2024-03-29T13:08:59;97166.00;;;28.91;24.63
9439;BME280;5176;42.622;25.386;2024-03-29T13:11:28;97164.41;;;29.15;24.13
9439;BME280;5176;42.622;25.386;2024-03-29T13:13:55;97160.59;;;29.29;23.71
9439;BME280;5176;42.622;25.386;2024-03-29T13:16:23;97169.25;;;29.38;24.29
9439;BME280;5176;42.622;25.386;2024-03-29T13:18:52;97171.28;;;29.43;24.05
9439;BME280;5176;42.622;25.386;2024-03-29T13:21:20;97165.22;;;29.47;23.81
9439;BME280;5176;42.622;25.386;2024-03-29T13:23:47;97168.34;;;29.51;24.09
9439;BME280;5176;42.622;25.386;2024-03-29T13:26:15;97165.50;;;29.39;23.71
9439;BME280;5176;42.622;25.386;2024-03-29T13:28:43;97154.34;;;28.97;23.51
9439;BME280;5176;42.622;25.386;2024-03-29T13:31:10;97176.06;;;29.16;24.26
9439;BME280;5176;42.622;25.386;2024-03-29T13:33:38;97170.25;;;29.44;25.03
9439;BME280;5176;42.622;25.386;2024-03-29T13:36:08;97168.31;;;29.19;23.91
9439;BME280;5176;42.622;25.386;2024-03-29T13:38:35;97164.50;;;28.95;24.67
9439;BME280;5176;42.622;25.386;2024-03-29T13:41:03;97167.84;;;28.91;24.08
9439;BME280;5176;42.622;25.386;2024-03-29T13:43:34;97157.44;;;28.56;24.73
9439;BME280;5176;42.622;25.386;2024-03-29T13:46:05;97162.16;;;28.61;24.46
9439;BME280;5176;42.622;25.386;2024-03-29T13:48:33;97163.19;;;28.60;24.33
9439;BME280;5176;42.622;25.386;2024-03-29T13:51:00;97160.66;;;28.71;24.85
9439;BME280;5176;42.622;25.386;2024-03-29T13:53:29;97157.78;;;28.66;24.27
9439;BME280;5176;42.622;25.386;2024-03-29T13:56:01;97160.28;;;28.61;24.32